Wetterdaten: aktuell Freitag, 03.02.2023 15:30
Datum Zeit Temperatur Luftfeuchte Luftdruck Regen Wind Richtung Richtung Sonnenschein ET UV Solar Taupunkt Windchill Windböen Empfang
03.02.2023 15:30 6,4 °C 82 % 1016,6 hPa 0,2 l/m² 19,0 km/h (3 Bft) W 265 ° 0 min 0,000 mm 0,0 UV-I 26 W/m² 3,6 °C 3,0 °C 35,4 km/h (5 Bft) 100 %
03.02.2023 15:20 6,4 °C 82 % 1016,5 hPa 0,2 l/m² 18,3 km/h (3 Bft) W 264 ° 0 min 0,001 mm 0,0 UV-I 19 W/m² 3,6 °C 3,0 °C 29,0 km/h (5 Bft) 100 %
03.02.2023 15:10 6,6 °C 80 % 1016,5 hPa 0,2 l/m² 17,3 km/h (3 Bft) W 279 ° 0 min 0,076 mm 0,0 UV-I 20 W/m² 3,4 °C 3,4 °C 29,0 km/h (5 Bft) 100 %
03.02.2023 15:00 6,8 °C 79 % 1016,5 hPa 0,4 l/m² 22,7 km/h (4 Bft) W 273 ° 0 min 0,000 mm 0,0 UV-I 21 W/m² 3,4 °C 3,1 °C 35,4 km/h (5 Bft) 100 %
03.02.2023 14:50 7,0 °C 78 % 1016,5 hPa 0,0 l/m² 22,7 km/h (4 Bft) W 274 ° 0 min 0,000 mm 0,0 UV-I 25 W/m² 3,4 °C 3,3 °C 35,4 km/h (5 Bft) 100 %
03.02.2023 14:40 7,1 °C 78 % 1016,3 hPa 0,2 l/m² 26,9 km/h (4 Bft) W 268 ° 0 min 0,000 mm 0,0 UV-I 33 W/m² 3,5 °C 3,0 °C 43,5 km/h (6 Bft) 100 %
03.02.2023 14:30 7,3 °C 76 % 1016,4 hPa 0,0 l/m² 30,9 km/h (5 Bft) W 273 ° 0 min 0,000 mm 0,0 UV-I 43 W/m² 3,4 °C 3,0 °C 49,9 km/h (6 Bft) 100 %
03.02.2023 14:20 7,6 °C 74 % 1016,4 hPa 0,0 l/m² 27,8 km/h (4 Bft) W 277 ° 0 min 0,000 mm 0,0 UV-I 66 W/m² 3,3 °C 3,6 °C 41,8 km/h (6 Bft) 100 %
03.02.2023 14:10 7,6 °C 73 % 1016,2 hPa 0,0 l/m² 28,9 km/h (5 Bft) W 261 ° 0 min 0,101 mm 0,0 UV-I 60 W/m² 3,1 °C 3,5 °C 46,7 km/h (6 Bft) 100 %
03.02.2023 14:00 7,4 °C 74 % 1016,7 hPa 0,0 l/m² 26,2 km/h (4 Bft) W-SW 246 ° 0 min 0,000 mm 0,0 UV-I 77 W/m² 3,1 °C 3,5 °C 49,9 km/h (6 Bft) 100 %
03.02.2023 13:50 7,4 °C 74 % 1017,0 hPa 0,0 l/m² 25,4 km/h (4 Bft) W 264 ° 0 min 0,000 mm 0,0 UV-I 77 W/m² 3,1 °C 3,6 °C 38,6 km/h (5 Bft) 98 %
03.02.2023 13:40 7,4 °C 74 % 1017,0 hPa 0,0 l/m² 30,6 km/h (5 Bft) W 269 ° 0 min 0,000 mm 0,0 UV-I 78 W/m² 3,1 °C 3,1 °C 53,1 km/h (7 Bft) 97 %
03.02.2023 13:30 7,4 °C 75 % 1017,3 hPa 0,0 l/m² 26,1 km/h (4 Bft) W-SW 246 ° 0 min 0,000 mm 0,1 UV-I 77 W/m² 3,3 °C 3,5 °C 41,8 km/h (6 Bft) 98 %
03.02.2023 13:20 7,5 °C 75 % 1017,5 hPa 0,0 l/m² 20,8 km/h (4 Bft) W-SW 250 ° 0 min 0,000 mm 0,5 UV-I 97 W/m² 3,4 °C 4,1 °C 38,6 km/h (5 Bft) 97 %
03.02.2023 13:10 7,4 °C 75 % 1017,7 hPa 0,0 l/m² 23,1 km/h (4 Bft) W-NW 283 ° 0 min 0,051 mm 0,2 UV-I 81 W/m² 3,3 °C 3,8 °C 43,5 km/h (6 Bft) 100 %
03.02.2023 13:00 7,6 °C 74 % 1018,0 hPa 0,0 l/m² 17,0 km/h (3 Bft) W 274 ° 0 min 0,000 mm 0,0 UV-I 64 W/m² 3,3 °C 4,7 °C 35,4 km/h (5 Bft) 100 %
03.02.2023 12:50 7,6 °C 73 % 1018,5 hPa 0,0 l/m² 17,2 km/h (3 Bft) W 275 ° 0 min 0,000 mm 0,0 UV-I 51 W/m² 3,1 °C 4,7 °C 35,4 km/h (5 Bft) 100 %
03.02.2023 12:40 7,6 °C 73 % 1018,8 hPa 0,0 l/m² 15,3 km/h (3 Bft) W 274 ° 0 min 0,000 mm 0,0 UV-I 48 W/m² 3,1 °C 4,9 °C 27,4 km/h (4 Bft) 100 %
03.02.2023 12:30 7,6 °C 73 % 1019,3 hPa 0,0 l/m² 16,5 km/h (3 Bft) W-SW 257 ° 0 min 0,000 mm 0,0 UV-I 47 W/m² 3,1 °C 4,8 °C 27,4 km/h (4 Bft) 100 %
03.02.2023 12:20 7,6 °C 73 % 1019,9 hPa 0,0 l/m² 13,7 km/h (3 Bft) W 275 ° 0 min 0,000 mm 0,0 UV-I 44 W/m² 3,1 °C 5,1 °C 29,0 km/h (5 Bft) 100 %
03.02.2023 12:10 7,5 °C 74 % 1020,0 hPa 0,0 l/m² 10,6 km/h (2 Bft) W 280 ° 0 min 0,076 mm 0,0 UV-I 53 W/m² 3,2 °C 5,5 °C 22,5 km/h (4 Bft) 100 %
03.02.2023 12:00 7,4 °C 74 % 1020,1 hPa 0,0 l/m² 10,4 km/h (2 Bft) W 273 ° 0 min 0,000 mm 0,0 UV-I 52 W/m² 3,1 °C 5,4 °C 22,5 km/h (4 Bft) 100 %
03.02.2023 11:50 7,5 °C 75 % 1020,5 hPa 0,0 l/m² 10,2 km/h (2 Bft) W 266 ° 0 min 0,000 mm 0,0 UV-I 48 W/m² 3,4 °C 5,6 °C 25,7 km/h (4 Bft) 99 %
03.02.2023 11:40 7,5 °C 74 % 1020,7 hPa 0,0 l/m² 13,1 km/h (3 Bft) W-NW 291 ° 0 min 0,000 mm 0,2 UV-I 71 W/m² 3,2 °C 5,1 °C 25,7 km/h (4 Bft) 99 %
03.02.2023 11:30 7,4 °C 75 % 1020,8 hPa 0,0 l/m² 14,6 km/h (3 Bft) W-NW 302 ° 0 min 0,000 mm 0,5 UV-I 88 W/m² 3,3 °C 4,8 °C 30,6 km/h (5 Bft) 98 %
03.02.2023 11:20 7,4 °C 75 % 1021,0 hPa 0,0 l/m² 14,0 km/h (3 Bft) W 279 ° 10 min 0,000 mm 0,6 UV-I 114 W/m² 3,3 °C 4,9 °C 24,1 km/h (4 Bft) 98 %
03.02.2023 11:10 7,3 °C 75 % 1021,3 hPa 0,0 l/m² 14,3 km/h (3 Bft) W 276 ° 10 min 0,076 mm 0,6 UV-I 114 W/m² 3,2 °C 4,7 °C 24,1 km/h (4 Bft) 98 %
03.02.2023 11:00 7,3 °C 76 % 1021,4 hPa 0,0 l/m² 16,1 km/h (3 Bft) W 274 ° 0 min 0,000 mm 0,5 UV-I 96 W/m² 3,4 °C 4,4 °C 32,2 km/h (5 Bft) 99 %
03.02.2023 10:50 7,2 °C 76 % 1021,6 hPa 0,0 l/m² 16,3 km/h (3 Bft) W 273 ° 0 min 0,000 mm 0,5 UV-I 83 W/m² 3,3 °C 4,3 °C 24,1 km/h (4 Bft) 100 %
03.02.2023 10:40 7,1 °C 77 % 1021,7 hPa 0,0 l/m² 18,6 km/h (3 Bft) W-SW 257 ° 0 min 0,000 mm 0,5 UV-I 95 W/m² 3,3 °C 3,9 °C 33,8 km/h (5 Bft) 100 %
03.02.2023 10:30 6,9 °C 79 % 1021,5 hPa 0,0 l/m² 18,4 km/h (3 Bft) W 267 ° 10 min 0,000 mm 0,6 UV-I 122 W/m² 3,5 °C 3,6 °C 30,6 km/h (5 Bft) 100 %
03.02.2023 10:20 6,6 °C 80 % 1021,4 hPa 0,0 l/m² 17,2 km/h (3 Bft) W 276 ° 10 min 0,001 mm 0,4 UV-I 103 W/m² 3,4 °C 3,4 °C 27,4 km/h (4 Bft) 100 %
03.02.2023 10:10 6,1 °C 83 % 1021,6 hPa 0,0 l/m² 10,5 km/h (2 Bft) W-NW 287 ° 0 min 0,025 mm 0,1 UV-I 79 W/m² 3,4 °C 3,9 °C 22,5 km/h (4 Bft) 100 %
03.02.2023 10:00 5,8 °C 83 % 1021,8 hPa 0,0 l/m² 5,5 km/h (1 Bft) W-NW 286 ° 0 min 0,000 mm 0,1 UV-I 74 W/m² 3,1 °C 4,8 °C 14,5 km/h (3 Bft) 100 %
03.02.2023 09:50 5,8 °C 83 % 1022,1 hPa 0,0 l/m² 5,8 km/h (2 Bft) W-NW 287 ° 0 min 0,000 mm 0,0 UV-I 51 W/m² 3,1 °C 4,7 °C 16,1 km/h (3 Bft) 100 %
03.02.2023 09:40 5,8 °C 83 % 1022,1 hPa 0,0 l/m² 8,8 km/h (2 Bft) W 271 ° 0 min 0,000 mm 0,0 UV-I 50 W/m² 3,1 °C 3,9 °C 17,7 km/h (3 Bft) 100 %
03.02.2023 09:30 5,7 °C 84 % 1022,1 hPa 0,2 l/m² 13,0 km/h (3 Bft) W 274 ° 0 min 0,000 mm 0,0 UV-I 51 W/m² 3,2 °C 2,9 °C 19,3 km/h (3 Bft) 100 %
03.02.2023 09:20 5,4 °C 85 % 1022,4 hPa 0,0 l/m² 9,7 km/h (2 Bft) W 281 ° 0 min 0,000 mm 0,0 UV-I 53 W/m² 3,1 °C 3,2 °C 17,7 km/h (3 Bft) 100 %
03.02.2023 09:10 5,2 °C 86 % 1022,7 hPa 0,0 l/m² 8,5 km/h (2 Bft) W 272 ° 0 min 0,000 mm 0,0 UV-I 47 W/m² 3,1 °C 3,2 °C 17,7 km/h (3 Bft) 100 %
03.02.2023 09:00 4,9 °C 88 % 1022,9 hPa 0,0 l/m² 9,6 km/h (2 Bft) W 274 ° 0 min 0,000 mm 0,0 UV-I 27 W/m² 3,1 °C 2,6 °C 17,7 km/h (3 Bft) 100 %
03.02.2023 08:50 4,5 °C 90 % 1023,0 hPa 0,0 l/m² 8,5 km/h (2 Bft) W 281 ° 0 min 0,000 mm 0,0 UV-I 20 W/m² 3,0 °C 2,4 °C 16,1 km/h (3 Bft) 100 %
03.02.2023 08:40 4,1 °C 90 % 1023,3 hPa 0,0 l/m² 8,7 km/h (2 Bft) W 277 ° 0 min 0,000 mm 0,0 UV-I 13 W/m² 2,6 °C 1,9 °C 16,1 km/h (3 Bft) 100 %
03.02.2023 08:30 3,7 °C 91 % 1023,2 hPa 0,0 l/m² 5,4 km/h (1 Bft) W 271 ° 0 min 0,000 mm 0,0 UV-I 10 W/m² 2,4 °C 2,4 °C 12,9 km/h (3 Bft) 100 %
03.02.2023 08:20 3,6 °C 90 % 1023,1 hPa 0,0 l/m² 2,5 km/h (1 Bft) W 273 ° 0 min 0,000 mm 0,0 UV-I 7 W/m² 2,1 °C 3,6 °C 9,7 km/h (2 Bft) 99 %
03.02.2023 08:10 3,7 °C 90 % 1023,1 hPa 0,0 l/m² 1,3 km/h (1 Bft) W 280 ° 0 min 0,000 mm 0,0 UV-I 0 W/m² 2,2 °C 3,7 °C 8,0 km/h (2 Bft) 97 %
03.02.2023 08:00 3,8 °C 91 % 1023,0 hPa 0,0 l/m² 6,1 km/h (2 Bft) W 275 ° 0 min 0,000 mm 0,0 UV-I 0 W/m² 2,5 °C 2,3 °C 11,3 km/h (2 Bft) 98 %
03.02.2023 07:50 3,8 °C 91 % 1023,1 hPa 0,0 l/m² 6,5 km/h (2 Bft) W 277 ° 0 min 0,000 mm 0,0 UV-I 0 W/m² 2,5 °C 2,2 °C 11,3 km/h (2 Bft) 97 %
03.02.2023 07:40 3,8 °C 91 % 1022,9 hPa 0,0 l/m² 10,4 km/h (2 Bft) W 279 ° 0 min 0,000 mm 0,0 UV-I 0 W/m² 2,5 °C 1,1 °C 17,7 km/h (3 Bft) 97 %
03.02.2023 07:30 3,5 °C 92 % 1023,2 hPa 0,0 l/m² 10,8 km/h (2 Bft) W 278 ° 0 min 0,000 mm 0,0 UV-I 0 W/m² 2,3 °C 0,7 °C 20,9 km/h (4 Bft) 98 %
03.02.2023 07:20 2,8 °C 92 % 1023,3 hPa 0,2 l/m² 8,0 km/h (2 Bft) W 279 ° 0 min 0,000 mm 0,0 UV-I 0 W/m² 1,6 °C 0,6 °C 14,5 km/h (3 Bft) 97 %
03.02.2023 07:10 2,1 °C 92 % 1023,6 hPa 0,0 l/m² 0,6 km/h (0 Bft) W 279 ° 0 min 0,000 mm 0,0 UV-I 0 W/m² 0,9 °C 2,1 °C 6,4 km/h (2 Bft) 97 %
03.02.2023 07:00 1,9 °C 91 % 1023,6 hPa 0,2 l/m² 0,0 km/h (0 Bft) W 279 ° 0 min 0,000 mm 0,0 UV-I 0 W/m² 0,6 °C 1,9 °C 0,0 km/h (0 Bft) 97 %
03.02.2023 06:50 1,9 °C 91 % 1023,8 hPa 0,2 l/m² 0,0 km/h (0 Bft) W 279 ° 0 min 0,000 mm 0,0 UV-I 0 W/m² 0,6 °C 1,9 °C 0,0 km/h (0 Bft) 97 %
03.02.2023 06:40 1,9 °C 91 % 1023,9 hPa 0,0 l/m² 0,0 km/h (0 Bft) W 279 ° 0 min 0,000 mm 0,0 UV-I 0 W/m² 0,6 °C 1,9 °C 0,0 km/h (0 Bft) 98 %
03.02.2023 06:30 2,0 °C 91 % 1023,9 hPa 0,0 l/m² 0,0 km/h (0 Bft) W 279 ° 0 min 0,000 mm 0,0 UV-I 0 W/m² 0,7 °C 2,0 °C 0,0 km/h (0 Bft) 97 %
03.02.2023 06:20 2,1 °C 91 % 1024,0 hPa 0,0 l/m² 0,0 km/h (0 Bft) W 279 ° 0 min 0,000 mm 0,0 UV-I 0 W/m² 0,8 °C 2,1 °C 0,0 km/h (0 Bft) 98 %
03.02.2023 06:10 2,1 °C 90 % 1024,0 hPa 0,0 l/m² 0,0 km/h (0 Bft) W 279 ° 0 min 0,000 mm 0,0 UV-I 0 W/m² 0,6 °C 2,1 °C 0,0 km/h (0 Bft) 97 %
03.02.2023 06:00 2,1 °C 90 % 1024,0 hPa 0,0 l/m² 0,0 km/h (0 Bft) W 279 ° 0 min 0,000 mm 0,0 UV-I 0 W/m² 0,6 °C 2,1 °C 0,0 km/h (0 Bft) 98 %
03.02.2023 05:50 2,1 °C 90 % 1024,1 hPa 0,2 l/m² 0,0 km/h (0 Bft) W 279 ° 0 min 0,000 mm 0,0 UV-I 0 W/m² 0,6 °C 2,1 °C 0,0 km/h (0 Bft) 97 %
03.02.2023 05:40 2,1 °C 90 % 1024,1 hPa 0,0 l/m² 0,0 km/h (0 Bft) W 279 ° 0 min 0,000 mm 0,0 UV-I 0 W/m² 0,6 °C 2,1 °C 0,0 km/h (0 Bft) 98 %
03.02.2023 05:30 2,1 °C 90 % 1024,3 hPa 0,0 l/m² 0,0 km/h (0 Bft) W 279 ° 0 min 0,000 mm 0,0 UV-I 0 W/m² 0,6 °C 2,1 °C 0,0 km/h (0 Bft) 97 %
03.02.2023 05:20 2,1 °C 90 % 1024,5 hPa 0,0 l/m² 0,0 km/h (0 Bft) W 279 ° 0 min 0,000 mm 0,0 UV-I 0 W/m² 0,6 °C 2,1 °C 0,0 km/h (0 Bft) 97 %
03.02.2023 05:10 2,1 °C 90 % 1024,7 hPa 0,0 l/m² 0,0 km/h (0 Bft) W 279 ° 0 min 0,000 mm 0,0 UV-I 0 W/m² 0,6 °C 2,1 °C 0,0 km/h (0 Bft) 98 %
03.02.2023 05:00 2,1 °C 89 % 1024,8 hPa 0,0 l/m² 0,0 km/h (0 Bft) W 279 ° 0 min 0,000 mm 0,0 UV-I 0 W/m² 0,5 °C 2,1 °C 0,0 km/h (0 Bft) 97 %
03.02.2023 04:50 2,1 °C 89 % 1024,9 hPa 0,0 l/m² 0,0 km/h (0 Bft) W 279 ° 0 min 0,000 mm 0,0 UV-I 0 W/m² 0,5 °C 2,1 °C 0,0 km/h (0 Bft) 98 %
03.02.2023 04:40 2,2 °C 89 % 1024,9 hPa 0,0 l/m² 0,0 km/h (0 Bft) W 279 ° 0 min 0,000 mm 0,0 UV-I 0 W/m² 0,6 °C 2,2 °C 0,0 km/h (0 Bft) 97 %
03.02.2023 04:30 2,2 °C 89 % 1025,0 hPa 0,0 l/m² 0,0 km/h (0 Bft) W 279 ° 0 min 0,000 mm 0,0 UV-I 0 W/m² 0,6 °C 2,2 °C 0,0 km/h (0 Bft) 98 %
03.02.2023 04:20 2,3 °C 89 % 1025,2 hPa 0,0 l/m² 2,4 km/h (1 Bft) W 279 ° 0 min 0,000 mm 0,0 UV-I 0 W/m² 0,7 °C 2,3 °C 12,9 km/h (3 Bft) 97 %
03.02.2023 04:10 2,3 °C 88 % 1025,4 hPa 0,0 l/m² 6,5 km/h (2 Bft) W 272 ° 0 min 0,000 mm 0,0 UV-I 0 W/m² 0,5 °C 0,4 °C 11,3 km/h (2 Bft) 98 %
_ Min-Zeit 06:40 12:20 14:10 - 04:30 - - - - - - 22:20 22:50 04:30 13:40
Minimum _ 1,9 °C 73 % 1016,2 hPa - 0,0 km/h (0 Bft) - - - - - - -0,4 °C -1,2 °C 0,0 km/h (0 Bft) 97 %
_ Max-Zeit 12:20 07:10 01:10 15:00 14:30 - - 10:20 14:10 10:30 10:30 15:20 11:50 13:40 16:00
Maximum _ 7,6 °C 92 % 1026,8 hPa 0,4 l/m² 30,9 km/h
W (5 Bft)
- - 10 min 0,101 mm 0,6 UV-I 122 W/m² 3,6 °C 5,6 °C 53,1 km/h
W (7 Bft)
100 %
Durchschnitt _ 4,1 °C 81 % 1022,6 hPa #2,2 l/m² 9,6 km/h (2 Bft) W - #40 min. #0,483 mm 0,4 UV-I 27 W/m² 1,2 °C 2,1 °C 18,3 km/h (3 Bft) 99 %